sensor_id;sensor_type;location;lat;lon;timestamp;temperature;humidity
25328;DHT22;13279;51.300;12.394;2023-10-31T00:01:06;12.20;99.90
25328;DHT22;13279;51.300;12.394;2023-10-31T00:03:33;12.20;99.90
25328;DHT22;13279;51.300;12.394;2023-10-31T00:06:00;12.20;99.90
25328;DHT22;13279;51.300;12.394;2023-10-31T00:08:30;12.20;99.90
25328;DHT22;13279;51.300;12.394;2023-10-31T00:10:57;12.20;99.90
25328;DHT22;13279;51.300;12.394;2023-10-31T00:13:25;12.20;99.90
25328;DHT22;13279;51.300;12.394;2023-10-31T00:15:52;12.10;99.90
25328;DHT22;13279;51.300;12.394;2023-10-31T00:18:19;12.20;99.90
25328;DHT22;13279;51.300;12.394;2023-10-31T00:20:47;12.10;99.90
25328;DHT22;13279;51.300;12.394;2023-10-31T00:23:15;12.10;99.90
25328;DHT22;13279;51.300;12.394;2023-10-31T00:25:44;12.10;99.90
25328;DHT22;13279;51.300;12.394;2023-10-31T00:28:11;12.10;99.90
25328;DHT22;13279;51.300;12.394;2023-10-31T00:30:39;12.10;99.90
25328;DHT22;13279;51.300;12.394;2023-10-31T00:33:07;12.10;99.90
25328;DHT22;13279;51.300;12.394;2023-10-31T00:35:34;12.10;99.90
25328;DHT22;13279;51.300;12.394;2023-10-31T00:38:01;12.10;99.90
25328;DHT22;13279;51.300;12.394;2023-10-31T00:40:29;12.10;99.90
25328;DHT22;13279;51.300;12.394;2023-10-31T00:42:58;12.10;99.90
25328;DHT22;13279;51.300;12.394;2023-10-31T00:45:27;12.00;99.90
25328;DHT22;13279;51.300;12.394;2023-10-31T00:47:54;12.00;99.90
25328;DHT22;13279;51.300;12.394;2023-10-31T00:50:22;12.10;99.90
25328;DHT22;13279;51.300;12.394;2023-10-31T00:52:49;12.00;99.90
25328;DHT22;13279;51.300;12.394;2023-10-31T00:55:16;12.00;99.90
25328;DHT22;13279;51.300;12.394;2023-10-31T00:57:44;12.00;99.90
25328;DHT22;13279;51.300;12.394;2023-10-31T01:00:14;12.10;99.90
25328;DHT22;13279;51.300;12.394;2023-10-31T01:02:41;12.10;99.90
25328;DHT22;13279;51.300;12.394;2023-10-31T01:05:10;12.10;99.90
25328;DHT22;13279;51.300;12.394;2023-10-31T01:07:38;12.00;99.90
25328;DHT22;13279;51.300;12.394;2023-10-31T01:10:05;12.10;99.90
25328;DHT22;13279;51.300;12.394;2023-10-31T01:12:33;12.00;99.90
25328;DHT22;13279;51.300;12.394;2023-10-31T01:15:01;12.00;99.90
25328;DHT22;13279;51.300;12.394;2023-10-31T01:17:30;12.00;99.90
25328;DHT22;13279;51.300;12.394;2023-10-31T01:19:57;11.90;99.90
25328;DHT22;13279;51.300;12.394;2023-10-31T01:22:25;11.90;99.90
25328;DHT22;13279;51.300;12.394;2023-10-31T01:24:52;11.90;99.90
25328;DHT22;13279;51.300;12.394;2023-10-31T01:27:20;11.90;99.90
25328;DHT22;13279;51.300;12.394;2023-10-31T01:29:47;11.90;99.90
25328;DHT22;13279;51.300;12.394;2023-10-31T01:32:16;11.90;99.90
25328;DHT22;13279;51.300;12.394;2023-10-31T01:34:45;11.90;99.90
25328;DHT22;13279;51.300;12.394;2023-10-31T01:37:13;11.80;99.90
25328;DHT22;13279;51.300;12.394;2023-10-31T01:39:41;11.90;99.90
25328;DHT22;13279;51.300;12.394;2023-10-31T01:42:09;11.90;99.90
25328;DHT22;13279;51.300;12.394;2023-10-31T01:44:37;11.90;99.90
25328;DHT22;13279;51.300;12.394;2023-10-31T01:47:05;11.90;99.90
25328;DHT22;13279;51.300;12.394;2023-10-31T01:49:32;11.80;99.90
25328;DHT22;13279;51.300;12.394;2023-10-31T01:52:01;11.80;99.90
25328;DHT22;13279;51.300;12.394;2023-10-31T01:54:30;11.80;99.90
25328;DHT22;13279;51.300;12.394;2023-10-31T01:56:58;11.80;99.90
25328;DHT22;13279;51.300;12.394;2023-10-31T01:59:27;11.80;99.90
25328;DHT22;13279;51.300;12.394;2023-10-31T02:01:55;11.80;99.90
25328;DHT22;13279;51.300;12.394;2023-10-31T02:04:23;11.90;99.90
25328;DHT22;13279;51.300;12.394;2023-10-31T02:06:51;11.80;99.90
25328;DHT22;13279;51.300;12.394;2023-10-31T02:09:20;11.80;99.90
25328;DHT22;13279;51.300;12.394;2023-10-31T02:11:50;11.80;99.90
25328;DHT22;13279;51.300;12.394;2023-10-31T02:14:18;11.80;99.90
25328;DHT22;13279;51.300;12.394;2023-10-31T02:16:46;11.80;99.90
25328;DHT22;13279;51.300;12.394;2023-10-31T02:19:18;11.80;99.90
25328;DHT22;13279;51.300;12.394;2023-10-31T02:21:47;11.80;99.90
25328;DHT22;13279;51.300;12.394;2023-10-31T02:24:15;11.80;99.90
25328;DHT22;13279;51.300;12.394;2023-10-31T02:26:43;11.80;99.90
25328;DHT22;13279;51.300;12.394;2023-10-31T02:29:10;11.90;99.90
25328;DHT22;13279;51.300;12.394;2023-10-31T02:31:38;11.90;99.90
25328;DHT22;13279;51.300;12.394;2023-10-31T02:34:06;11.90;99.90
25328;DHT22;13279;51.300;12.394;2023-10-31T02:36:33;11.90;99.90
25328;DHT22;13279;51.300;12.394;2023-10-31T02:39:03;11.90;99.90
25328;DHT22;13279;51.300;12.394;2023-10-31T02:41:30;11.90;99.90
25328;DHT22;13279;51.300;12.394;2023-10-31T02:43:58;11.90;99.90
25328;DHT22;13279;51.300;12.394;2023-10-31T02:46:26;11.90;99.90
25328;DHT22;13279;51.300;12.394;2023-10-31T02:48:53;11.90;99.90
25328;DHT22;13279;51.300;12.394;2023-10-31T02:51:21;11.90;99.90
25328;DHT22;13279;51.300;12.394;2023-10-31T02:53:48;11.90;99.90
25328;DHT22;13279;51.300;12.394;2023-10-31T02:56:17;11.90;99.90
25328;DHT22;13279;51.300;12.394;2023-10-31T02:58:46;11.90;99.90
25328;DHT22;13279;51.300;12.394;2023-10-31T03:01:13;11.90;99.90
25328;DHT22;13279;51.300;12.394;2023-10-31T03:03:41;11.90;99.90
25328;DHT22;13279;51.300;12.394;2023-10-31T03:06:09;11.90;99.90
25328;DHT22;13279;51.300;12.394;2023-10-31T03:08:36;11.90;99.90
25328;DHT22;13279;51.300;12.394;2023-10-31T03:11:04;11.90;99.90
25328;DHT22;13279;51.300;12.394;2023-10-31T03:13:33;11.90;99.90
25328;DHT22;13279;51.300;12.394;2023-10-31T03:16:00;11.90;99.90
25328;DHT22;13279;51.300;12.394;2023-10-31T03:18:28;11.90;99.90
25328;DHT22;13279;51.300;12.394;2023-10-31T03:20:56;11.90;99.90
25328;DHT22;13279;51.300;12.394;2023-10-31T03:23:23;12.00;99.90
25328;DHT22;13279;51.300;12.394;2023-10-31T03:25:51;12.00;99.90
25328;DHT22;13279;51.300;12.394;2023-10-31T03:28:19;12.00;99.90
25328;DHT22;13279;51.300;12.394;2023-10-31T03:30:56;12.00;99.90
25328;DHT22;13279;51.300;12.394;2023-10-31T03:33:43;12.00;99.90
25328;DHT22;13279;51.300;12.394;2023-10-31T03:36:11;12.00;99.90
25328;DHT22;13279;51.300;12.394;2023-10-31T03:38:38;12.00;99.90
25328;DHT22;13279;51.300;12.394;2023-10-31T03:41:07;12.00;99.90
25328;DHT22;13279;51.300;12.394;2023-10-31T03:43:35;12.00;99.90
25328;DHT22;13279;51.300;12.394;2023-10-31T03:46:05;12.00;99.90
25328;DHT22;13279;51.300;12.394;2023-10-31T03:48:32;12.00;99.90
25328;DHT22;13279;51.300;12.394;2023-10-31T03:51:00;12.00;99.90
25328;DHT22;13279;51.300;12.394;2023-10-31T03:53:28;12.00;99.90
25328;DHT22;13279;51.300;12.394;2023-10-31T03:55:55;12.00;99.90
25328;DHT22;13279;51.300;12.394;2023-10-31T03:58:26;12.00;99.90
25328;DHT22;13279;51.300;12.394;2023-10-31T04:00:53;12.00;99.90
25328;DHT22;13279;51.300;12.394;2023-10-31T04:03:22;12.00;99.90
25328;DHT22;13279;51.300;12.394;2023-10-31T04:05:49;12.00;99.90
25328;DHT22;13279;51.300;12.394;2023-10-31T04:08:17;12.00;99.90
25328;DHT22;13279;51.300;12.394;2023-10-31T04:10:45;12.00;99.90
25328;DHT22;13279;51.300;12.394;2023-10-31T04:13:12;12.00;99.90
25328;DHT22;13279;51.300;12.394;2023-10-31T04:15:40;12.00;99.90
25328;DHT22;13279;51.300;12.394;2023-10-31T04:18:08;12.00;99.90
25328;DHT22;13279;51.300;12.394;2023-10-31T04:20:37;12.00;99.90
25328;DHT22;13279;51.300;12.394;2023-10-31T04:23:04;12.00;99.90
25328;DHT22;13279;51.300;12.394;2023-10-31T04:25:32;12.00;99.90
25328;DHT22;13279;51.300;12.394;2023-10-31T04:27:59;12.00;99.90
25328;DHT22;13279;51.300;12.394;2023-10-31T04:30:27;12.00;99.90
25328;DHT22;13279;51.300;12.394;2023-10-31T04:32:55;12.00;99.90
25328;DHT22;13279;51.300;12.394;2023-10-31T04:35:22;12.00;99.90
25328;DHT22;13279;51.300;12.394;2023-10-31T04:37:51;12.10;99.90
25328;DHT22;13279;51.300;12.394;2023-10-31T04:40:19;12.00;99.90
25328;DHT22;13279;51.300;12.394;2023-10-31T04:42:46;12.00;99.90
25328;DHT22;13279;51.300;12.394;2023-10-31T04:45:14;12.00;99.90
25328;DHT22;13279;51.300;12.394;2023-10-31T04:47:42;12.00;99.90
25328;DHT22;13279;51.300;12.394;2023-10-31T04:50:09;12.00;99.90
25328;DHT22;13279;51.300;12.394;2023-10-31T04:52:36;12.00;99.90
25328;DHT22;13279;51.300;12.394;2023-10-31T04:55:06;12.00;99.90
25328;DHT22;13279;51.300;12.394;2023-10-31T04:57:34;12.00;99.90
25328;DHT22;13279;51.300;12.394;2023-10-31T05:00:01;12.00;99.90
25328;DHT22;13279;51.300;12.394;2023-10-31T05:02:31;12.00;99.90
25328;DHT22;13279;51.300;12.394;2023-10-31T05:04:59;12.00;99.90
25328;DHT22;13279;51.300;12.394;2023-10-31T05:07:26;12.00;99.90
25328;DHT22;13279;51.300;12.394;2023-10-31T05:09:53;12.00;99.90
25328;DHT22;13279;51.300;12.394;2023-10-31T05:12:22;12.00;99.90
25328;DHT22;13279;51.300;12.394;2023-10-31T05:14:50;12.00;99.90
25328;DHT22;13279;51.300;12.394;2023-10-31T05:17:17;12.00;99.90
25328;DHT22;13279;51.300;12.394;2023-10-31T05:19:44;12.00;99.90
25328;DHT22;13279;51.300;12.394;2023-10-31T05:22:12;12.00;99.90
25328;DHT22;13279;51.300;12.394;2023-10-31T05:24:39;12.00;99.90
25328;DHT22;13279;51.300;12.394;2023-10-31T05:27:07;12.00;99.90
25328;DHT22;13279;51.300;12.394;2023-10-31T05:29:38;12.00;99.90
25328;DHT22;13279;51.300;12.394;2023-10-31T05:32:06;12.10;99.90
25328;DHT22;13279;51.300;12.394;2023-10-31T05:34:33;12.10;99.90
25328;DHT22;13279;51.300;12.394;2023-10-31T05:37:01;12.10;99.90
25328;DHT22;13279;51.300;12.394;2023-10-31T05:39:28;12.10;99.90
25328;DHT22;13279;51.300;12.394;2023-10-31T05:41:56;12.10;99.90
25328;DHT22;13279;51.300;12.394;2023-10-31T05:44:23;12.10;99.90
25328;DHT22;13279;51.300;12.394;2023-10-31T05:46:52;12.10;99.90
25328;DHT22;13279;51.300;12.394;2023-10-31T05:49:20;12.10;99.90
25328;DHT22;13279;51.300;12.394;2023-10-31T05:51:50;12.00;99.90
25328;DHT22;13279;51.300;12.394;2023-10-31T05:54:17;12.00;99.90
25328;DHT22;13279;51.300;12.394;2023-10-31T05:56:45;12.00;99.90
25328;DHT22;13279;51.300;12.394;2023-10-31T05:59:13;12.00;99.90
25328;DHT22;13279;51.300;12.394;2023-10-31T06:01:41;12.00;99.90
25328;DHT22;13279;51.300;12.394;2023-10-31T06:04:10;12.00;99.90
25328;DHT22;13279;51.300;12.394;2023-10-31T06:06:38;12.00;99.90
25328;DHT22;13279;51.300;12.394;2023-10-31T06:09:06;12.00;99.90
25328;DHT22;13279;51.300;12.394;2023-10-31T06:11:35;11.90;99.90
25328;DHT22;13279;51.300;12.394;2023-10-31T06:14:02;11.90;99.90
25328;DHT22;13279;51.300;12.394;2023-10-31T06:16:31;11.90;99.90
25328;DHT22;13279;51.300;12.394;2023-10-31T06:18:58;11.90;99.90
25328;DHT22;13279;51.300;12.394;2023-10-31T06:21:27;11.90;99.90
25328;DHT22;13279;51.300;12.394;2023-10-31T06:23:54;11.90;99.90
25328;DHT22;13279;51.300;12.394;2023-10-31T06:26:22;11.90;99.90
25328;DHT22;13279;51.300;12.394;2023-10-31T06:28:49;11.90;99.90
25328;DHT22;13279;51.300;12.394;2023-10-31T06:31:17;11.90;99.90
25328;DHT22;13279;51.300;12.394;2023-10-31T06:33:44;11.80;99.90
25328;DHT22;13279;51.300;12.394;2023-10-31T06:36:12;11.80;99.90
25328;DHT22;13279;51.300;12.394;2023-10-31T06:38:40;11.80;99.90
25328;DHT22;13279;51.300;12.394;2023-10-31T06:41:07;11.80;99.90
25328;DHT22;13279;51.300;12.394;2023-10-31T06:43:34;11.80;99.90
25328;DHT22;13279;51.300;12.394;2023-10-31T06:46:03;11.80;99.90
25328;DHT22;13279;51.300;12.394;2023-10-31T06:48:30;11.80;99.90
25328;DHT22;13279;51.300;12.394;2023-10-31T06:50:58;11.70;99.90
25328;DHT22;13279;51.300;12.394;2023-10-31T06:53:25;11.70;99.90
25328;DHT22;13279;51.300;12.394;2023-10-31T06:55:54;11.80;99.90
25328;DHT22;13279;51.300;12.394;2023-10-31T06:58:22;11.80;99.90
25328;DHT22;13279;51.300;12.394;2023-10-31T07:00:49;11.80;99.90
25328;DHT22;13279;51.300;12.394;2023-10-31T07:03:17;11.80;99.90
25328;DHT22;13279;51.300;12.394;2023-10-31T07:05:45;11.80;99.90
25328;DHT22;13279;51.300;12.394;2023-10-31T07:08:13;11.90;99.90
25328;DHT22;13279;51.300;12.394;2023-10-31T07:10:41;11.90;99.90
25328;DHT22;13279;51.300;12.394;2023-10-31T07:13:09;11.90;99.90
25328;DHT22;13279;51.300;12.394;2023-10-31T07:15:37;12.00;99.90
25328;DHT22;13279;51.300;12.394;2023-10-31T07:18:05;12.00;99.90
25328;DHT22;13279;51.300;12.394;2023-10-31T07:20:33;12.00;99.90
25328;DHT22;13279;51.300;12.394;2023-10-31T07:23:01;12.00;99.90
25328;DHT22;13279;51.300;12.394;2023-10-31T07:25:28;12.00;99.90
25328;DHT22;13279;51.300;12.394;2023-10-31T07:27:55;11.90;99.90
25328;DHT22;13279;51.300;12.394;2023-10-31T07:30:24;11.90;99.90
25328;DHT22;13279;51.300;12.394;2023-10-31T07:32:52;12.00;99.90
25328;DHT22;13279;51.300;12.394;2023-10-31T07:35:20;12.00;99.90
25328;DHT22;13279;51.300;12.394;2023-10-31T07:37:50;12.00;99.90
25328;DHT22;13279;51.300;12.394;2023-10-31T07:40:18;12.00;99.90
25328;DHT22;13279;51.300;12.394;2023-10-31T07:42:45;12.10;99.90
25328;DHT22;13279;51.300;12.394;2023-10-31T07:45:13;12.10;99.90
25328;DHT22;13279;51.300;12.394;2023-10-31T07:47:41;12.10;99.90
25328;DHT22;13279;51.300;12.394;2023-10-31T07:50:09;12.20;99.90
25328;DHT22;13279;51.300;12.394;2023-10-31T07:52:37;12.20;99.90
25328;DHT22;13279;51.300;12.394;2023-10-31T07:55:05;12.30;99.90
25328;DHT22;13279;51.300;12.394;2023-10-31T07:57:32;12.30;99.90
25328;DHT22;13279;51.300;12.394;2023-10-31T08:00:00;12.30;99.90
25328;DHT22;13279;51.300;12.394;2023-10-31T08:02:27;12.30;99.90
25328;DHT22;13279;51.300;12.394;2023-10-31T08:04:56;12.40;99.90
25328;DHT22;13279;51.300;12.394;2023-10-31T08:07:23;12.50;99.90
25328;DHT22;13279;51.300;12.394;2023-10-31T08:09:56;12.50;99.90
25328;DHT22;13279;51.300;12.394;2023-10-31T08:12:23;12.50;99.90
25328;DHT22;13279;51.300;12.394;2023-10-31T08:14:51;12.50;99.90
25328;DHT22;13279;51.300;12.394;2023-10-31T08:17:18;12.50;99.90
25328;DHT22;13279;51.300;12.394;2023-10-31T08:19:45;12.50;99.90
25328;DHT22;13279;51.300;12.394;2023-10-31T08:22:14;12.50;99.90
25328;DHT22;13279;51.300;12.394;2023-10-31T08:24:42;12.60;99.90
25328;DHT22;13279;51.300;12.394;2023-10-31T08:27:10;12.60;99.90
25328;DHT22;13279;51.300;12.394;2023-10-31T08:29:38;12.60;99.90
25328;DHT22;13279;51.300;12.394;2023-10-31T08:32:06;12.60;99.90
25328;DHT22;13279;51.300;12.394;2023-10-31T08:34:33;12.60;99.90
25328;DHT22;13279;51.300;12.394;2023-10-31T08:37:01;12.60;99.90
25328;DHT22;13279;51.300;12.394;2023-10-31T08:39:30;12.60;99.90
25328;DHT22;13279;51.300;12.394;2023-10-31T08:41:58;12.70;99.90
25328;DHT22;13279;51.300;12.394;2023-10-31T08:44:26;12.80;99.90
25328;DHT22;13279;51.300;12.394;2023-10-31T08:46:53;13.00;99.90
25328;DHT22;13279;51.300;12.394;2023-10-31T08:49:21;13.10;99.90
25328;DHT22;13279;51.300;12.394;2023-10-31T08:51:48;13.20;99.90
25328;DHT22;13279;51.300;12.394;2023-10-31T08:54:16;13.20;99.90
25328;DHT22;13279;51.300;12.394;2023-10-31T08:56:44;13.40;99.90
25328;DHT22;13279;51.300;12.394;2023-10-31T08:59:12;13.60;99.90
25328;DHT22;13279;51.300;12.394;2023-10-31T09:01:39;13.30;99.90
25328;DHT22;13279;51.300;12.394;2023-10-31T09:04:07;13.30;99.90
25328;DHT22;13279;51.300;12.394;2023-10-31T09:06:34;13.30;99.90
25328;DHT22;13279;51.300;12.394;2023-10-31T09:09:03;13.20;99.90
25328;DHT22;13279;51.300;12.394;2023-10-31T09:11:30;13.10;99.90
25328;DHT22;13279;51.300;12.394;2023-10-31T09:13:59;13.00;99.90
25328;DHT22;13279;51.300;12.394;2023-10-31T09:16:26;13.00;99.90
25328;DHT22;13279;51.300;12.394;2023-10-31T09:18:53;12.90;99.90
25328;DHT22;13279;51.300;12.394;2023-10-31T09:21:20;12.90;99.90
25328;DHT22;13279;51.300;12.394;2023-10-31T09:23:49;12.80;99.90
25328;DHT22;13279;51.300;12.394;2023-10-31T09:26:16;12.80;99.90
25328;DHT22;13279;51.300;12.394;2023-10-31T09:28:44;12.80;99.90
25328;DHT22;13279;51.300;12.394;2023-10-31T09:31:17;12.80;99.90
25328;DHT22;13279;51.300;12.394;2023-10-31T09:33:45;12.80;99.90
25328;DHT22;13279;51.300;12.394;2023-10-31T09:36:13;12.90;99.90
25328;DHT22;13279;51.300;12.394;2023-10-31T09:38:40;12.90;99.90
25328;DHT22;13279;51.300;12.394;2023-10-31T09:41:08;12.80;99.90
25328;DHT22;13279;51.300;12.394;2023-10-31T09:43:35;12.80;99.90
25328;DHT22;13279;51.300;12.394;2023-10-31T09:46:04;13.00;99.90
25328;DHT22;13279;51.300;12.394;2023-10-31T09:48:33;13.30;99.90
25328;DHT22;13279;51.300;12.394;2023-10-31T09:51:02;13.50;99.90
25328;DHT22;13279;51.300;12.394;2023-10-31T09:53:30;13.70;99.90
25328;DHT22;13279;51.300;12.394;2023-10-31T09:55:58;13.70;99.90
25328;DHT22;13279;51.300;12.394;2023-10-31T09:58:25;14.00;99.90
25328;DHT22;13279;51.300;12.394;2023-10-31T10:00:53;14.00;99.90
25328;DHT22;13279;51.300;12.394;2023-10-31T10:03:21;13.70;99.90
25328;DHT22;13279;51.300;12.394;2023-10-31T10:05:51;13.70;99.90
25328;DHT22;13279;51.300;12.394;2023-10-31T10:08:19;13.70;99.90
25328;DHT22;13279;51.300;12.394;2023-10-31T10:10:49;13.80;99.90
25328;DHT22;13279;51.300;12.394;2023-10-31T10:13:17;13.80;99.90
25328;DHT22;13279;51.300;12.394;2023-10-31T10:15:48;13.70;98.40
25328;DHT22;13279;51.300;12.394;2023-10-31T10:18:28;13.60;99.90
25328;DHT22;13279;51.300;12.394;2023-10-31T10:20:58;13.40;99.90
25328;DHT22;13279;51.300;12.394;2023-10-31T10:23:26;13.40;99.90
25328;DHT22;13279;51.300;12.394;2023-10-31T10:25:55;13.40;99.90
25328;DHT22;13279;51.300;12.394;2023-10-31T10:28:23;13.50;99.90
25328;DHT22;13279;51.300;12.394;2023-10-31T10:30:52;13.40;4.70
25328;DHT22;13279;51.300;12.394;2023-10-31T10:33:20;13.40;1.00
25328;DHT22;13279;51.300;12.394;2023-10-31T10:35:48;13.40;1.00
25328;DHT22;13279;51.300;12.394;2023-10-31T10:38:18;13.50;1.00
25328;DHT22;13279;51.300;12.394;2023-10-31T10:40:46;13.50;1.00
25328;DHT22;13279;51.300;12.394;2023-10-31T10:43:22;13.60;1.00
25328;DHT22;13279;51.300;12.394;2023-10-31T10:45:53;13.50;1.00
25328;DHT22;13279;51.300;12.394;2023-10-31T10:48:23;13.50;1.00
25328;DHT22;13279;51.300;12.394;2023-10-31T10:50:57;13.50;1.00
25328;DHT22;13279;51.300;12.394;2023-10-31T10:53:30;13.50;1.00
25328;DHT22;13279;51.300;12.394;2023-10-31T10:56:07;13.60;1.00
25328;DHT22;13279;51.300;12.394;2023-10-31T10:58:45;13.60;1.00
25328;DHT22;13279;51.300;12.394;2023-10-31T11:01:16;13.70;1.00
25328;DHT22;13279;51.300;12.394;2023-10-31T11:03:44;13.70;1.00
25328;DHT22;13279;51.300;12.394;2023-10-31T11:06:12;13.80;1.00
25328;DHT22;13279;51.300;12.394;2023-10-31T11:08:43;13.80;1.00
25328;DHT22;13279;51.300;12.394;2023-10-31T11:11:11;13.80;1.00
25328;DHT22;13279;51.300;12.394;2023-10-31T11:13:43;13.90;1.00
25328;DHT22;13279;51.300;12.394;2023-10-31T11:16:15;13.90;1.00
25328;DHT22;13279;51.300;12.394;2023-10-31T11:18:44;13.80;1.00
25328;DHT22;13279;51.300;12.394;2023-10-31T11:21:12;13.80;99.90
25328;DHT22;13279;51.300;12.394;2023-10-31T11:23:40;13.80;99.90
25328;DHT22;13279;51.300;12.394;2023-10-31T11:26:09;13.90;1.00
25328;DHT22;13279;51.300;12.394;2023-10-31T11:28:37;13.90;99.90
25328;DHT22;13279;51.300;12.394;2023-10-31T11:31:05;13.90;99.90
25328;DHT22;13279;51.300;12.394;2023-10-31T11:33:39;13.80;99.90
25328;DHT22;13279;51.300;12.394;2023-10-31T11:36:10;13.70;99.90
25328;DHT22;13279;51.300;12.394;2023-10-31T11:38:38;13.70;99.90
25328;DHT22;13279;51.300;12.394;2023-10-31T11:41:05;13.60;99.90
25328;DHT22;13279;51.300;12.394;2023-10-31T11:43:52;13.60;99.90
25328;DHT22;13279;51.300;12.394;2023-10-31T11:46:20;13.50;99.90
25328;DHT22;13279;51.300;12.394;2023-10-31T11:48:51;13.50;1.00
25328;DHT22;13279;51.300;12.394;2023-10-31T11:51:19;13.40;99.90
25328;DHT22;13279;51.300;12.394;2023-10-31T11:53:48;13.40;1.00
25328;DHT22;13279;51.300;12.394;2023-10-31T11:56:19;13.40;99.90
25328;DHT22;13279;51.300;12.394;2023-10-31T11:59:01;13.40;1.00
25328;DHT22;13279;51.300;12.394;2023-10-31T12:01:29;13.40;1.00
25328;DHT22;13279;51.300;12.394;2023-10-31T12:03:56;13.40;1.00
25328;DHT22;13279;51.300;12.394;2023-10-31T12:06:24;13.30;1.00
25328;DHT22;13279;51.300;12.394;2023-10-31T12:08:51;13.30;1.00
25328;DHT22;13279;51.300;12.394;2023-10-31T12:11:21;13.30;1.00
25328;DHT22;13279;51.300;12.394;2023-10-31T12:13:58;13.30;1.00
25328;DHT22;13279;51.300;12.394;2023-10-31T12:16:27;13.30;1.00
25328;DHT22;13279;51.300;12.394;2023-10-31T12:18:55;13.20;1.00
25328;DHT22;13279;51.300;12.394;2023-10-31T12:21:40;13.20;1.00
25328;DHT22;13279;51.300;12.394;2023-10-31T12:24:10;13.30;1.00
25328;DHT22;13279;51.300;12.394;2023-10-31T12:26:38;13.40;1.00
25328;DHT22;13279;51.300;12.394;2023-10-31T12:29:11;13.40;1.00
25328;DHT22;13279;51.300;12.394;2023-10-31T12:31:46;13.40;1.00
25328;DHT22;13279;51.300;12.394;2023-10-31T12:34:14;13.40;1.00
25328;DHT22;13279;51.300;12.394;2023-10-31T12:36:42;13.50;1.00
25328;DHT22;13279;51.300;12.394;2023-10-31T12:39:11;13.70;1.00
25328;DHT22;13279;51.300;12.394;2023-10-31T12:41:40;13.80;1.00
25328;DHT22;13279;51.300;12.394;2023-10-31T12:44:09;13.80;99.90
25328;DHT22;13279;51.300;12.394;2023-10-31T12:46:39;13.70;1.00
25328;DHT22;13279;51.300;12.394;2023-10-31T12:49:11;13.70;1.00
25328;DHT22;13279;51.300;12.394;2023-10-31T12:51:55;13.60;1.00
25328;DHT22;13279;51.300;12.394;2023-10-31T12:54:30;13.60;1.00
25328;DHT22;13279;51.300;12.394;2023-10-31T12:57:01;13.60;1.00
25328;DHT22;13279;51.300;12.394;2023-10-31T12:59:31;13.50;1.00
25328;DHT22;13279;51.300;12.394;2023-10-31T13:01:59;13.50;1.00
25328;DHT22;13279;51.300;12.394;2023-10-31T13:04:26;13.60;1.00
25328;DHT22;13279;51.300;12.394;2023-10-31T13:07:02;13.70;1.00
25328;DHT22;13279;51.300;12.394;2023-10-31T13:09:30;13.70;1.00
25328;DHT22;13279;51.300;12.394;2023-10-31T13:11:59;13.70;1.00
25328;DHT22;13279;51.300;12.394;2023-10-31T13:14:27;13.60;1.00
25328;DHT22;13279;51.300;12.394;2023-10-31T13:16:55;13.60;1.00
25328;DHT22;13279;51.300;12.394;2023-10-31T13:19:23;13.50;1.00
25328;DHT22;13279;51.300;12.394;2023-10-31T13:21:50;13.40;1.00
25328;DHT22;13279;51.300;12.394;2023-10-31T13:24:18;13.40;1.00
25328;DHT22;13279;51.300;12.394;2023-10-31T13:26:46;13.40;1.00
25328;DHT22;13279;51.300;12.394;2023-10-31T13:29:17;13.40;1.00
25328;DHT22;13279;51.300;12.394;2023-10-31T13:31:45;13.30;1.00
25328;DHT22;13279;51.300;12.394;2023-10-31T13:34:14;13.40;1.00
25328;DHT22;13279;51.300;12.394;2023-10-31T13:36:41;13.30;1.00
25328;DHT22;13279;51.300;12.394;2023-10-31T13:39:10;13.30;1.00
25328;DHT22;13279;51.300;12.394;2023-10-31T13:41:38;13.30;1.00
25328;DHT22;13279;51.300;12.394;2023-10-31T13:44:06;13.30;1.00
25328;DHT22;13279;51.300;12.394;2023-10-31T13:46:33;13.30;1.00
25328;DHT22;13279;51.300;12.394;2023-10-31T13:49:00;13.20;1.00
25328;DHT22;13279;51.300;12.394;2023-10-31T13:51:30;13.20;1.00
25328;DHT22;13279;51.300;12.394;2023-10-31T13:53:58;13.20;1.00
25328;DHT22;13279;51.300;12.394;2023-10-31T13:56:25;13.20;1.00
25328;DHT22;13279;51.300;12.394;2023-10-31T13:58:53;13.20;1.00
25328;DHT22;13279;51.300;12.394;2023-10-31T14:01:20;13.20;1.00
25328;DHT22;13279;51.300;12.394;2023-10-31T14:03:51;13.40;1.00
25328;DHT22;13279;51.300;12.394;2023-10-31T14:06:18;13.60;1.00
25328;DHT22;13279;51.300;12.394;2023-10-31T14:08:47;13.50;1.00
25328;DHT22;13279;51.300;12.394;2023-10-31T14:11:14;13.40;1.00
25328;DHT22;13279;51.300;12.394;2023-10-31T14:13:42;13.40;1.00
25328;DHT22;13279;51.300;12.394;2023-10-31T14:16:10;13.40;1.00
25328;DHT22;13279;51.300;12.394;2023-10-31T14:18:39;13.40;1.00
25328;DHT22;13279;51.300;12.394;2023-10-31T14:21:06;13.50;1.00
25328;DHT22;13279;51.300;12.394;2023-10-31T14:23:34;13.50;1.00
25328;DHT22;13279;51.300;12.394;2023-10-31T14:26:03;13.50;1.00
25328;DHT22;13279;51.300;12.394;2023-10-31T14:28:30;13.40;1.00
25328;DHT22;13279;51.300;12.394;2023-10-31T14:31:03;13.40;1.00
25328;DHT22;13279;51.300;12.394;2023-10-31T14:33:35;13.30;1.00
25328;DHT22;13279;51.300;12.394;2023-10-31T14:36:03;13.30;1.00
25328;DHT22;13279;51.300;12.394;2023-10-31T14:38:40;13.20;1.00
25328;DHT22;13279;51.300;12.394;2023-10-31T14:41:15;13.10;1.00
25328;DHT22;13279;51.300;12.394;2023-10-31T14:43:42;13.10;1.00
25328;DHT22;13279;51.300;12.394;2023-10-31T14:46:10;13.10;1.00
25328;DHT22;13279;51.300;12.394;2023-10-31T14:48:37;13.00;1.00
25328;DHT22;13279;51.300;12.394;2023-10-31T14:51:05;13.00;1.00
25328;DHT22;13279;51.300;12.394;2023-10-31T14:53:32;13.00;1.00
25328;DHT22;13279;51.300;12.394;2023-10-31T14:56:00;13.00;1.00
25328;DHT22;13279;51.300;12.394;2023-10-31T14:58:30;12.90;1.00
25328;DHT22;13279;51.300;12.394;2023-10-31T15:00:57;12.90;1.00
25328;DHT22;13279;51.300;12.394;2023-10-31T15:03:24;12.90;1.00
25328;DHT22;13279;51.300;12.394;2023-10-31T15:05:53;12.90;1.00
25328;DHT22;13279;51.300;12.394;2023-10-31T15:08:20;12.90;1.00
25328;DHT22;13279;51.300;12.394;2023-10-31T15:10:47;12.90;1.00
25328;DHT22;13279;51.300;12.394;2023-10-31T15:13:14;12.90;1.00
25328;DHT22;13279;51.300;12.394;2023-10-31T15:15:43;12.80;1.00
25328;DHT22;13279;51.300;12.394;2023-10-31T15:18:11;12.90;1.00
25328;DHT22;13279;51.300;12.394;2023-10-31T15:20:38;12.80;1.00
25328;DHT22;13279;51.300;12.394;2023-10-31T15:23:05;12.80;1.00
25328;DHT22;13279;51.300;12.394;2023-10-31T15:25:34;12.80;1.00
25328;DHT22;13279;51.300;12.394;2023-10-31T15:28:01;12.80;1.00